Terminal Aerodrome Forecast
Issued by NWS

Home | Current Version | Previous Version | Graphics & Text | Print | Product List | Glossary On
Versions: 1 2 3 4 5 6 7 8 9 10 11 12 13
000
FTUS43 KGRB 151100
TAFAUW
TAF
KAUW 151120Z 1512/1612 11007KT P6SM SCT250
     FM151500 13012G18KT P6SM BKN250
     FM160000 11006KT P6SM BKN200=

USA.gov is the U.S. government's official web portal to all federal, state and local government web resources and services.